sensor_id;sensor_type;location;lat;lon;timestamp;noise_LAeq;noise_LA_min;noise_LA_max;noise_LA01;noise_LA95
69670;Laerm;66535;52.370;4.832;2023-06-19T00:00:26;53.60;49.72;56.17;;
69670;Laerm;66535;52.370;4.832;2023-06-19T00:01:01;51.44;45.35;55.42;;
69670;Laerm;66535;52.370;4.832;2023-06-19T00:01:32;52.16;46.39;55.73;;
69670;Laerm;66535;52.370;4.832;2023-06-19T00:02:04;51.51;48.32;54.72;;
69670;Laerm;66535;52.370;4.832;2023-06-19T00:02:36;49.98;47.65;52.74;;
69670;Laerm;66535;52.370;4.832;2023-06-19T00:03:07;53.45;47.39;59.01;;
69670;Laerm;66535;52.370;4.832;2023-06-19T00:03:39;52.70;47.36;57.94;;
69670;Laerm;66535;52.370;4.832;2023-06-19T00:04:11;45.83;41.88;50.08;;
69670;Laerm;66535;52.370;4.832;2023-06-19T00:04:43;49.71;44.89;53.27;;
69670;Laerm;66535;52.370;4.832;2023-06-19T00:05:14;56.63;49.65;60.07;;
69670;Laerm;66535;52.370;4.832;2023-06-19T00:05:46;52.46;46.51;57.58;;
69670;Laerm;66535;52.370;4.832;2023-06-19T00:06:19;50.81;47.02;53.57;;
69670;Laerm;66535;52.370;4.832;2023-06-19T00:06:50;53.60;48.74;57.37;;
69670;Laerm;66535;52.370;4.832;2023-06-19T00:07:22;51.75;46.90;57.27;;
69670;Laerm;66535;52.370;4.832;2023-06-19T00:07:54;49.12;45.72;53.18;;
69670;Laerm;66535;52.370;4.832;2023-06-19T00:08:25;49.59;44.30;52.98;;
69670;Laerm;66535;52.370;4.832;2023-06-19T00:08:57;48.07;44.47;51.23;;
69670;Laerm;66535;52.370;4.832;2023-06-19T00:09:28;48.75;43.16;53.84;;
69670;Laerm;66535;52.370;4.832;2023-06-19T00:10:00;51.80;48.08;55.22;;
69670;Laerm;66535;52.370;4.832;2023-06-19T00:10:31;50.35;47.23;53.55;;
69670;Laerm;66535;52.370;4.832;2023-06-19T00:11:03;50.33;43.14;53.89;;
69670;Laerm;66535;52.370;4.832;2023-06-19T00:11:35;45.97;42.97;48.43;;
69670;Laerm;66535;52.370;4.832;2023-06-19T00:12:07;44.24;40.24;51.93;;
69670;Laerm;66535;52.370;4.832;2023-06-19T00:12:39;44.45;41.27;46.89;;
69670;Laerm;66535;52.370;4.832;2023-06-19T00:13:10;45.35;43.08;47.72;;
69670;Laerm;66535;52.370;4.832;2023-06-19T00:13:41;44.82;41.96;47.03;;
69670;Laerm;66535;52.370;4.832;2023-06-19T00:14:14;46.66;42.10;51.22;;
69670;Laerm;66535;52.370;4.832;2023-06-19T00:14:45;51.11;47.20;54.19;;
69670;Laerm;66535;52.370;4.832;2023-06-19T00:15:17;49.70;47.16;55.75;;
69670;Laerm;66535;52.370;4.832;2023-06-19T00:15:48;54.54;44.65;63.66;;
69670;Laerm;66535;52.370;4.832;2023-06-19T00:16:21;51.40;47.07;55.08;;
69670;Laerm;66535;52.370;4.832;2023-06-19T00:16:52;49.49;44.58;53.46;;
69670;Laerm;66535;52.370;4.832;2023-06-19T00:17:23;46.23;43.32;48.76;;
69670;Laerm;66535;52.370;4.832;2023-06-19T00:17:57;46.74;43.79;64.06;;
69670;Laerm;66535;52.370;4.832;2023-06-19T00:18:28;47.71;44.59;49.86;;
69670;Laerm;66535;52.370;4.832;2023-06-19T00:18:59;47.75;44.92;51.66;;
69670;Laerm;66535;52.370;4.832;2023-06-19T00:19:34;51.87;47.01;55.35;;
69670;Laerm;66535;52.370;4.832;2023-06-19T00:20:07;52.04;47.69;57.36;;
69670;Laerm;66535;52.370;4.832;2023-06-19T00:20:39;48.40;45.23;50.83;;
69670;Laerm;66535;52.370;4.832;2023-06-19T00:21:11;45.96;42.31;49.27;;
69670;Laerm;66535;52.370;4.832;2023-06-19T00:21:44;52.16;44.87;60.01;;
69670;Laerm;66535;52.370;4.832;2023-06-19T00:22:16;50.12;45.04;54.69;;
69670;Laerm;66535;52.370;4.832;2023-06-19T00:22:48;46.72;44.30;49.17;;
69670;Laerm;66535;52.370;4.832;2023-06-19T00:23:22;47.76;45.27;51.92;;
69670;Laerm;66535;52.370;4.832;2023-06-19T00:23:53;44.88;42.44;49.77;;
69670;Laerm;66535;52.370;4.832;2023-06-19T00:24:26;46.49;42.15;52.07;;
69670;Laerm;66535;52.370;4.832;2023-06-19T00:24:57;43.55;41.15;50.97;;
69670;Laerm;66535;52.370;4.832;2023-06-19T00:25:28;47.88;43.16;51.18;;
69670;Laerm;66535;52.370;4.832;2023-06-19T00:26:01;48.23;44.59;52.35;;
69670;Laerm;66535;52.370;4.832;2023-06-19T00:26:32;51.18;47.50;53.78;;
69670;Laerm;66535;52.370;4.832;2023-06-19T00:27:04;48.31;43.52;51.55;;
69670;Laerm;66535;52.370;4.832;2023-06-19T00:27:35;49.49;43.46;54.34;;
69670;Laerm;66535;52.370;4.832;2023-06-19T00:28:08;51.75;46.69;56.14;;
69670;Laerm;66535;52.370;4.832;2023-06-19T00:28:42;48.62;45.07;53.16;;
69670;Laerm;66535;52.370;4.832;2023-06-19T00:29:16;49.21;45.42;58.73;;
69670;Laerm;66535;52.370;4.832;2023-06-19T00:29:48;48.13;45.48;54.36;;
69670;Laerm;66535;52.370;4.832;2023-06-19T00:30:19;50.36;45.18;53.47;;
69670;Laerm;66535;52.370;4.832;2023-06-19T00:30:51;56.04;50.42;62.75;;
69670;Laerm;66535;52.370;4.832;2023-06-19T00:31:22;57.71;52.71;62.17;;
69670;Laerm;66535;52.370;4.832;2023-06-19T00:31:54;58.23;51.84;62.10;;
69670;Laerm;66535;52.370;4.832;2023-06-19T00:32:26;51.08;47.20;55.80;;
69670;Laerm;66535;52.370;4.832;2023-06-19T00:32:57;49.61;46.61;53.53;;
69670;Laerm;66535;52.370;4.832;2023-06-19T00:33:33;53.15;49.07;56.26;;
69670;Laerm;66535;52.370;4.832;2023-06-19T00:34:04;49.06;46.19;51.95;;
69670;Laerm;66535;52.370;4.832;2023-06-19T00:34:36;50.96;46.30;54.79;;
69670;Laerm;66535;52.370;4.832;2023-06-19T00:35:09;51.25;47.50;55.80;;
69670;Laerm;66535;52.370;4.832;2023-06-19T00:35:40;48.56;45.18;55.46;;
69670;Laerm;66535;52.370;4.832;2023-06-19T00:36:13;50.82;44.87;54.45;;
69670;Laerm;66535;52.370;4.832;2023-06-19T00:36:47;54.50;50.20;57.28;;
69670;Laerm;66535;52.370;4.832;2023-06-19T00:37:19;49.85;47.02;52.98;;
69670;Laerm;66535;52.370;4.832;2023-06-19T00:37:50;50.81;48.09;53.70;;
69670;Laerm;66535;52.370;4.832;2023-06-19T00:38:22;46.08;42.90;50.32;;
69670;Laerm;66535;52.370;4.832;2023-06-19T00:38:54;44.39;39.79;50.01;;
69670;Laerm;66535;52.370;4.832;2023-06-19T00:39:27;45.06;41.50;49.04;;
69670;Laerm;66535;52.370;4.832;2023-06-19T00:39:58;47.23;43.11;52.30;;
69670;Laerm;66535;52.370;4.832;2023-06-19T00:40:32;48.82;42.74;52.77;;
69670;Laerm;66535;52.370;4.832;2023-06-19T00:41:04;46.89;44.43;55.66;;
69670;Laerm;66535;52.370;4.832;2023-06-19T00:41:35;47.04;43.38;50.69;;
69670;Laerm;66535;52.370;4.832;2023-06-19T00:42:08;49.03;45.84;57.25;;
69670;Laerm;66535;52.370;4.832;2023-06-19T00:42:39;49.96;46.33;54.15;;
69670;Laerm;66535;52.370;4.832;2023-06-19T00:43:10;49.51;46.51;54.63;;
69670;Laerm;66535;52.370;4.832;2023-06-19T00:43:42;50.07;47.25;52.11;;
69670;Laerm;66535;52.370;4.832;2023-06-19T00:44:14;51.89;48.03;55.38;;
69670;Laerm;66535;52.370;4.832;2023-06-19T00:44:45;49.68;46.44;53.78;;
69670;Laerm;66535;52.370;4.832;2023-06-19T00:45:16;48.41;45.99;50.87;;
69670;Laerm;66535;52.370;4.832;2023-06-19T00:45:48;50.13;46.07;53.71;;
69670;Laerm;66535;52.370;4.832;2023-06-19T00:46:20;49.34;43.99;52.37;;
69670;Laerm;66535;52.370;4.832;2023-06-19T00:46:54;48.32;44.47;52.58;;
69670;Laerm;66535;52.370;4.832;2023-06-19T00:47:27;47.44;43.56;51.60;;
69670;Laerm;66535;52.370;4.832;2023-06-19T00:47:59;47.47;44.57;49.63;;
69670;Laerm;66535;52.370;4.832;2023-06-19T00:48:32;49.23;45.01;57.26;;
69670;Laerm;66535;52.370;4.832;2023-06-19T00:49:04;50.24;46.78;56.43;;
69670;Laerm;66535;52.370;4.832;2023-06-19T00:49:36;48.20;45.42;54.12;;
69670;Laerm;66535;52.370;4.832;2023-06-19T00:50:07;46.53;41.79;50.05;;
69670;Laerm;66535;52.370;4.832;2023-06-19T00:50:39;45.92;41.78;52.38;;
69670;Laerm;66535;52.370;4.832;2023-06-19T00:51:11;50.06;46.32;52.72;;
69670;Laerm;66535;52.370;4.832;2023-06-19T00:51:42;48.13;42.48;52.84;;
69670;Laerm;66535;52.370;4.832;2023-06-19T00:52:15;44.48;41.62;47.65;;
69670;Laerm;66535;52.370;4.832;2023-06-19T00:52:47;48.70;42.58;58.61;;
69670;Laerm;66535;52.370;4.832;2023-06-19T00:53:19;52.95;42.20;64.98;;
69670;Laerm;66535;52.370;4.832;2023-06-19T00:53:51;48.87;41.43;55.00;;
69670;Laerm;66535;52.370;4.832;2023-06-19T00:54:23;48.61;44.15;52.32;;
69670;Laerm;66535;52.370;4.832;2023-06-19T00:54:55;51.91;48.33;55.38;;
69670;Laerm;66535;52.370;4.832;2023-06-19T00:55:28;50.44;47.28;57.77;;
69670;Laerm;66535;52.370;4.832;2023-06-19T00:56:00;49.17;45.44;51.87;;
69670;Laerm;66535;52.370;4.832;2023-06-19T00:56:33;51.23;46.30;54.92;;
69670;Laerm;66535;52.370;4.832;2023-06-19T00:57:08;53.53;50.27;63.11;;
69670;Laerm;66535;52.370;4.832;2023-06-19T00:57:39;52.45;48.55;55.47;;
69670;Laerm;66535;52.370;4.832;2023-06-19T00:58:11;50.39;47.24;53.29;;
69670;Laerm;66535;52.370;4.832;2023-06-19T00:58:43;51.15;47.16;56.90;;
69670;Laerm;66535;52.370;4.832;2023-06-19T00:59:16;52.88;50.49;55.60;;
69670;Laerm;66535;52.370;4.832;2023-06-19T00:59:47;52.10;49.47;55.22;;
69670;Laerm;66535;52.370;4.832;2023-06-19T01:00:20;50.86;44.26;60.38;;
69670;Laerm;66535;52.370;4.832;2023-06-19T01:00:51;47.56;43.66;50.87;;
69670;Laerm;66535;52.370;4.832;2023-06-19T01:01:22;44.77;40.53;48.98;;
69670;Laerm;66535;52.370;4.832;2023-06-19T01:01:54;44.82;40.97;47.33;;
69670;Laerm;66535;52.370;4.832;2023-06-19T01:02:27;45.52;40.54;49.49;;
69670;Laerm;66535;52.370;4.832;2023-06-19T01:02:58;46.74;44.52;52.78;;
69670;Laerm;66535;52.370;4.832;2023-06-19T01:03:29;46.66;42.94;51.12;;
69670;Laerm;66535;52.370;4.832;2023-06-19T01:04:01;51.01;47.38;54.90;;
69670;Laerm;66535;52.370;4.832;2023-06-19T01:04:33;49.10;45.59;52.09;;
69670;Laerm;66535;52.370;4.832;2023-06-19T01:05:04;51.80;44.77;56.64;;
69670;Laerm;66535;52.370;4.832;2023-06-19T01:05:36;52.60;50.04;56.38;;
69670;Laerm;66535;52.370;4.832;2023-06-19T01:06:09;52.17;48.66;61.89;;
69670;Laerm;66535;52.370;4.832;2023-06-19T01:06:46;50.69;45.63;57.42;;
69670;Laerm;66535;52.370;4.832;2023-06-19T01:07:27;46.06;42.77;50.71;;
69670;Laerm;66535;52.370;4.832;2023-06-19T01:08:02;51.97;44.08;58.55;;
69670;Laerm;66535;52.370;4.832;2023-06-19T01:08:49;60.06;53.79;64.96;;
69670;Laerm;66535;52.370;4.832;2023-06-19T01:09:21;60.58;55.98;64.66;;
69670;Laerm;66535;52.370;4.832;2023-06-19T01:09:55;59.32;55.24;62.25;;
69670;Laerm;66535;52.370;4.832;2023-06-19T01:10:33;60.67;56.94;65.08;;
69670;Laerm;66535;52.370;4.832;2023-06-19T01:11:06;59.14;54.02;64.24;;
69670;Laerm;66535;52.370;4.832;2023-06-19T01:11:44;61.05;54.94;66.04;;
69670;Laerm;66535;52.370;4.832;2023-06-19T01:12:19;61.16;57.57;65.77;;
69670;Laerm;66535;52.370;4.832;2023-06-19T01:12:54;60.20;57.11;63.81;;
69670;Laerm;66535;52.370;4.832;2023-06-19T01:13:30;58.12;52.83;61.43;;
69670;Laerm;66535;52.370;4.832;2023-06-19T01:14:08;55.06;50.37;58.60;;
69670;Laerm;66535;52.370;4.832;2023-06-19T01:14:43;53.14;49.51;58.15;;
69670;Laerm;66535;52.370;4.832;2023-06-19T01:15:16;56.56;52.49;60.70;;
69670;Laerm;66535;52.370;4.832;2023-06-19T01:15:49;53.36;50.21;57.65;;
69670;Laerm;66535;52.370;4.832;2023-06-19T01:16:20;59.85;54.36;65.07;;
69670;Laerm;66535;52.370;4.832;2023-06-19T01:16:52;60.02;57.04;63.57;;
69670;Laerm;66535;52.370;4.832;2023-06-19T01:17:27;61.67;56.43;67.38;;
69670;Laerm;66535;52.370;4.832;2023-06-19T01:17:59;58.99;55.66;61.61;;
69670;Laerm;66535;52.370;4.832;2023-06-19T01:18:31;59.01;54.41;63.55;;
69670;Laerm;66535;52.370;4.832;2023-06-19T01:19:04;58.20;54.88;61.07;;
69670;Laerm;66535;52.370;4.832;2023-06-19T01:19:36;59.06;55.06;62.51;;
69670;Laerm;66535;52.370;4.832;2023-06-19T01:20:08;56.20;52.79;70.43;;
69670;Laerm;66535;52.370;4.832;2023-06-19T01:20:42;58.12;54.73;66.08;;
69670;Laerm;66535;52.370;4.832;2023-06-19T01:21:15;55.32;52.42;58.90;;
69670;Laerm;66535;52.370;4.832;2023-06-19T01:21:47;53.72;49.63;57.60;;
69670;Laerm;66535;52.370;4.832;2023-06-19T01:22:27;52.98;50.24;55.34;;
69670;Laerm;66535;52.370;4.832;2023-06-19T01:23:06;56.41;51.30;59.90;;
69670;Laerm;66535;52.370;4.832;2023-06-19T01:23:37;60.82;55.35;64.80;;
69670;Laerm;66535;52.370;4.832;2023-06-19T01:24:08;57.83;53.33;70.65;;
69670;Laerm;66535;52.370;4.832;2023-06-19T01:24:40;56.67;52.67;60.48;;
69670;Laerm;66535;52.370;4.832;2023-06-19T01:25:12;58.57;55.25;61.85;;
69670;Laerm;66535;52.370;4.832;2023-06-19T01:25:44;57.82;51.69;61.63;;
69670;Laerm;66535;52.370;4.832;2023-06-19T01:26:16;54.62;50.93;59.36;;
69670;Laerm;66535;52.370;4.832;2023-06-19T01:26:49;58.44;54.05;62.50;;
69670;Laerm;66535;52.370;4.832;2023-06-19T01:27:20;54.44;50.77;57.59;;
69670;Laerm;66535;52.370;4.832;2023-06-19T01:27:51;53.05;50.16;56.12;;
69670;Laerm;66535;52.370;4.832;2023-06-19T01:28:24;53.75;50.00;57.17;;
69670;Laerm;66535;52.370;4.832;2023-06-19T01:28:57;51.59;48.96;54.48;;
69670;Laerm;66535;52.370;4.832;2023-06-19T01:29:28;56.77;49.75;60.12;;
69670;Laerm;66535;52.370;4.832;2023-06-19T01:30:00;57.15;54.19;60.23;;
69670;Laerm;66535;52.370;4.832;2023-06-19T01:30:33;58.53;52.70;62.76;;
69670;Laerm;66535;52.370;4.832;2023-06-19T01:31:06;56.59;52.20;60.26;;
69670;Laerm;66535;52.370;4.832;2023-06-19T01:31:45;57.99;54.01;62.25;;
69670;Laerm;66535;52.370;4.832;2023-06-19T01:32:25;60.42;57.33;65.46;;
69670;Laerm;66535;52.370;4.832;2023-06-19T01:32:59;57.20;50.44;63.46;;
69670;Laerm;66535;52.370;4.832;2023-06-19T01:33:34;54.66;51.69;57.05;;
69670;Laerm;66535;52.370;4.832;2023-06-19T01:34:09;56.80;52.25;60.35;;
69670;Laerm;66535;52.370;4.832;2023-06-19T01:34:42;55.32;51.00;58.70;;
69670;Laerm;66535;52.370;4.832;2023-06-19T01:35:13;54.48;51.62;56.90;;
69670;Laerm;66535;52.370;4.832;2023-06-19T01:35:46;53.75;51.11;58.09;;
69670;Laerm;66535;52.370;4.832;2023-06-19T01:36:19;56.22;52.32;59.17;;
69670;Laerm;66535;52.370;4.832;2023-06-19T01:36:51;56.27;51.51;61.08;;
69670;Laerm;66535;52.370;4.832;2023-06-19T01:37:27;53.92;49.65;60.76;;
69670;Laerm;66535;52.370;4.832;2023-06-19T01:37:59;57.90;52.11;63.16;;
69670;Laerm;66535;52.370;4.832;2023-06-19T01:38:31;57.07;54.30;59.91;;
69670;Laerm;66535;52.370;4.832;2023-06-19T01:39:04;54.98;52.15;59.83;;
69670;Laerm;66535;52.370;4.832;2023-06-19T01:39:36;57.20;53.35;60.45;;
69670;Laerm;66535;52.370;4.832;2023-06-19T01:40:08;55.89;53.68;59.47;;
69670;Laerm;66535;52.370;4.832;2023-06-19T01:40:40;56.41;51.69;60.13;;
69670;Laerm;66535;52.370;4.832;2023-06-19T01:41:13;54.94;49.05;59.06;;
69670;Laerm;66535;52.370;4.832;2023-06-19T01:41:46;51.33;48.18;53.96;;
69670;Laerm;66535;52.370;4.832;2023-06-19T01:42:18;53.44;50.30;56.77;;
69670;Laerm;66535;52.370;4.832;2023-06-19T01:42:50;55.62;52.32;63.10;;
69670;Laerm;66535;52.370;4.832;2023-06-19T01:43:23;53.65;49.32;57.79;;
69670;Laerm;66535;52.370;4.832;2023-06-19T01:43:55;55.70;50.49;59.23;;
69670;Laerm;66535;52.370;4.832;2023-06-19T01:44:28;53.82;48.55;58.24;;
69670;Laerm;66535;52.370;4.832;2023-06-19T01:45:00;51.33;46.90;64.19;;
69670;Laerm;66535;52.370;4.832;2023-06-19T01:45:34;50.77;48.00;54.62;;
69670;Laerm;66535;52.370;4.832;2023-06-19T01:46:06;54.48;51.56;58.25;;
69670;Laerm;66535;52.370;4.832;2023-06-19T01:46:37;54.06;49.33;57.55;;
69670;Laerm;66535;52.370;4.832;2023-06-19T01:47:10;54.85;49.76;65.19;;
69670;Laerm;66535;52.370;4.832;2023-06-19T01:47:43;53.86;49.14;57.34;;
69670;Laerm;66535;52.370;4.832;2023-06-19T01:48:14;53.81;49.28;64.55;;
69670;Laerm;66535;52.370;4.832;2023-06-19T01:48:46;53.38;50.73;63.09;;
69670;Laerm;66535;52.370;4.832;2023-06-19T01:49:18;52.79;50.09;55.58;;
69670;Laerm;66535;52.370;4.832;2023-06-19T01:49:49;50.62;47.49;63.54;;
69670;Laerm;66535;52.370;4.832;2023-06-19T01:50:21;49.35;45.23;60.54;;
69670;Laerm;66535;52.370;4.832;2023-06-19T01:50:53;49.54;45.87;52.59;;
69670;Laerm;66535;52.370;4.832;2023-06-19T01:51:25;47.88;45.33;51.66;;
69670;Laerm;66535;52.370;4.832;2023-06-19T01:51:56;47.94;45.61;51.46;;
69670;Laerm;66535;52.370;4.832;2023-06-19T01:52:33;49.10;45.93;53.09;;
69670;Laerm;66535;52.370;4.832;2023-06-19T01:53:04;53.42;46.76;69.98;;
69670;Laerm;66535;52.370;4.832;2023-06-19T01:53:36;52.48;48.56;57.21;;
69670;Laerm;66535;52.370;4.832;2023-06-19T01:54:08;51.35;47.24;54.48;;
69670;Laerm;66535;52.370;4.832;2023-06-19T01:54:39;47.07;44.21;50.03;;
69670;Laerm;66535;52.370;4.832;2023-06-19T01:55:11;53.52;45.45;59.94;;
69670;Laerm;66535;52.370;4.832;2023-06-19T01:55:43;50.72;47.31;53.28;;
69670;Laerm;66535;52.370;4.832;2023-06-19T01:56:14;50.76;46.99;60.68;;
69670;Laerm;66535;52.370;4.832;2023-06-19T01:56:46;47.05;43.27;50.72;;
69670;Laerm;66535;52.370;4.832;2023-06-19T01:57:18;44.31;40.86;48.27;;
69670;Laerm;66535;52.370;4.832;2023-06-19T01:57:50;45.30;42.13;48.22;;
69670;Laerm;66535;52.370;4.832;2023-06-19T01:58:21;47.03;43.75;52.56;;
69670;Laerm;66535;52.370;4.832;2023-06-19T01:58:53;49.11;45.98;51.71;;
69670;Laerm;66535;52.370;4.832;2023-06-19T01:59:26;47.78;45.21;55.63;;
69670;Laerm;66535;52.370;4.832;2023-06-19T01:59:57;50.20;46.54;64.96;;
69670;Laerm;66535;52.370;4.832;2023-06-19T02:00:29;50.38;47.18;52.93;;
69670;Laerm;66535;52.370;4.832;2023-06-19T02:01:03;55.62;48.70;59.43;;
69670;Laerm;66535;52.370;4.832;2023-06-19T02:01:34;55.11;52.26;58.67;;
69670;Laerm;66535;52.370;4.832;2023-06-19T02:02:06;53.79;49.26;57.37;;
69670;Laerm;66535;52.370;4.832;2023-06-19T02:02:38;50.65;46.72;59.68;;
69670;Laerm;66535;52.370;4.832;2023-06-19T02:03:09;48.76;45.44;51.79;;
69670;Laerm;66535;52.370;4.832;2023-06-19T02:03:41;50.18;45.37;53.46;;
69670;Laerm;66535;52.370;4.832;2023-06-19T02:04:12;53.07;48.64;56.57;;
69670;Laerm;66535;52.370;4.832;2023-06-19T02:04:43;51.21;47.38;55.23;;
69670;Laerm;66535;52.370;4.832;2023-06-19T02:05:15;50.24;44.93;53.31;;
69670;Laerm;66535;52.370;4.832;2023-06-19T02:05:47;50.04;45.65;54.71;;
69670;Laerm;66535;52.370;4.832;2023-06-19T02:06:18;56.18;50.21;74.81;;
69670;Laerm;66535;52.370;4.832;2023-06-19T02:06:49;57.12;52.94;64.15;;
69670;Laerm;66535;52.370;4.832;2023-06-19T02:07:21;52.95;48.35;62.31;;
69670;Laerm;66535;52.370;4.832;2023-06-19T02:07:54;56.02;50.36;59.26;;
69670;Laerm;66535;52.370;4.832;2023-06-19T02:08:25;55.96;51.21;59.41;;
69670;Laerm;66535;52.370;4.832;2023-06-19T02:08:57;52.26;49.12;56.30;;
69670;Laerm;66535;52.370;4.832;2023-06-19T02:09:28;56.69;51.45;59.85;;
69670;Laerm;66535;52.370;4.832;2023-06-19T02:10:00;56.61;52.12;64.80;;
69670;Laerm;66535;52.370;4.832;2023-06-19T02:10:32;53.03;49.58;57.53;;
69670;Laerm;66535;52.370;4.832;2023-06-19T02:11:03;51.59;48.27;53.86;;
69670;Laerm;66535;52.370;4.832;2023-06-19T02:11:34;52.77;49.18;56.39;;
69670;Laerm;66535;52.370;4.832;2023-06-19T02:12:07;56.43;51.25;60.01;;
69670;Laerm;66535;52.370;4.832;2023-06-19T02:12:39;52.08;49.05;55.80;;
69670;Laerm;66535;52.370;4.832;2023-06-19T02:13:10;54.18;51.11;57.76;;
69670;Laerm;66535;52.370;4.832;2023-06-19T02:13:42;56.58;53.63;59.11;;
69670;Laerm;66535;52.370;4.832;2023-06-19T02:14:14;56.13;53.53;60.18;;
69670;Laerm;66535;52.370;4.832;2023-06-19T02:14:45;56.68;51.99;63.49;;
69670;Laerm;66535;52.370;4.832;2023-06-19T02:15:17;54.40;51.15;58.52;;
69670;Laerm;66535;52.370;4.832;2023-06-19T02:15:49;50.44;46.41;55.36;;
69670;Laerm;66535;52.370;4.832;2023-06-19T02:16:20;48.42;45.16;51.96;;
69670;Laerm;66535;52.370;4.832;2023-06-19T02:16:51;49.50;46.65;52.30;;
69670;Laerm;66535;52.370;4.832;2023-06-19T02:17:24;52.56;46.28;59.63;;
69670;Laerm;66535;52.370;4.832;2023-06-19T02:17:55;45.95;42.21;49.89;;
69670;Laerm;66535;52.370;4.832;2023-06-19T02:18:26;45.64;43.15;61.34;;
69670;Laerm;66535;52.370;4.832;2023-06-19T02:18:58;47.47;44.14;50.09;;
69670;Laerm;66535;52.370;4.832;2023-06-19T02:19:31;48.47;45.33;51.55;;
69670;Laerm;66535;52.370;4.832;2023-06-19T02:20:03;47.28;43.45;51.82;;
69670;Laerm;66535;52.370;4.832;2023-06-19T02:20:36;50.36;46.99;54.54;;
69670;Laerm;66535;52.370;4.832;2023-06-19T02:21:08;51.25;47.02;56.26;;
69670;Laerm;66535;52.370;4.832;2023-06-19T02:21:39;51.60;46.23;57.26;;
69670;Laerm;66535;52.370;4.832;2023-06-19T02:22:11;51.16;46.99;54.23;;
69670;Laerm;66535;52.370;4.832;2023-06-19T02:22:43;50.41;47.14;54.51;;
69670;Laerm;66535;52.370;4.832;2023-06-19T02:23:16;47.23;43.65;51.39;;
69670;Laerm;66535;52.370;4.832;2023-06-19T02:23:47;49.25;44.32;54.97;;
69670;Laerm;66535;52.370;4.832;2023-06-19T02:24:19;49.70;46.72;53.17;;
69670;Laerm;66535;52.370;4.832;2023-06-19T02:24:50;49.91;47.05;53.74;;
69670;Laerm;66535;52.370;4.832;2023-06-19T02:25:22;49.86;46.39;53.11;;
69670;Laerm;66535;52.370;4.832;2023-06-19T02:25:54;49.12;45.75;55.86;;
69670;Laerm;66535;52.370;4.832;2023-06-19T02:26:25;48.86;46.28;51.58;;
69670;Laerm;66535;52.370;4.832;2023-06-19T02:26:59;51.04;47.48;54.80;;
69670;Laerm;66535;52.370;4.832;2023-06-19T02:27:33;50.81;48.16;54.02;;
69670;Laerm;66535;52.370;4.832;2023-06-19T02:28:04;53.58;50.70;57.41;;
69670;Laerm;66535;52.370;4.832;2023-06-19T02:28:35;52.83;48.70;56.86;;
69670;Laerm;66535;52.370;4.832;2023-06-19T02:29:07;48.25;43.03;52.36;;
69670;Laerm;66535;52.370;4.832;2023-06-19T02:29:38;47.11;42.71;54.59;;
69670;Laerm;66535;52.370;4.832;2023-06-19T02:30:10;49.49;44.44;54.64;;
69670;Laerm;66535;52.370;4.832;2023-06-19T02:30:42;51.16;44.94;56.10;;
69670;Laerm;66535;52.370;4.832;2023-06-19T02:31:14;50.97;45.00;56.39;;
69670;Laerm;66535;52.370;4.832;2023-06-19T02:31:45;51.79;47.38;55.15;;
69670;Laerm;66535;52.370;4.832;2023-06-19T02:32:16;52.38;47.21;59.48;;
69670;Laerm;66535;52.370;4.832;2023-06-19T02:32:49;48.96;44.24;54.36;;
69670;Laerm;66535;52.370;4.832;2023-06-19T02:33:20;47.48;43.56;52.36;;
69670;Laerm;66535;52.370;4.832;2023-06-19T02:33:51;49.23;43.78;54.82;;
69670;Laerm;66535;52.370;4.832;2023-06-19T02:34:23;48.28;44.62;55.37;;
69670;Laerm;66535;52.370;4.832;2023-06-19T02:34:55;47.52;42.81;53.04;;
69670;Laerm;66535;52.370;4.832;2023-06-19T02:35:26;49.14;42.93;56.74;;
69670;Laerm;66535;52.370;4.832;2023-06-19T02:35:59;54.06;50.07;61.09;;
69670;Laerm;66535;52.370;4.832;2023-06-19T02:36:30;52.09;48.07;55.28;;
69670;Laerm;66535;52.370;4.832;2023-06-19T02:37:01;49.38;45.54;56.19;;
69670;Laerm;66535;52.370;4.832;2023-06-19T02:37:33;46.43;42.21;52.39;;
69670;Laerm;66535;52.370;4.832;2023-06-19T02:38:06;47.34;42.54;55.40;;
69670;Laerm;66535;52.370;4.832;2023-06-19T02:38:39;52.16;47.22;56.69;;
69670;Laerm;66535;52.370;4.832;2023-06-19T02:39:13;50.61;46.98;57.35;;
69670;Laerm;66535;52.370;4.832;2023-06-19T02:39:45;55.69;50.51;59.93;;
69670;Laerm;66535;52.370;4.832;2023-06-19T02:40:16;54.76;51.46;62.20;;
69670;Laerm;66535;52.370;4.832;2023-06-19T02:40:48;52.05;46.95;57.86;;
69670;Laerm;66535;52.370;4.832;2023-06-19T02:41:19;49.47;45.10;56.54;;
69670;Laerm;66535;52.370;4.832;2023-06-19T02:41:51;51.93;47.70;61.24;;
69670;Laerm;66535;52.370;4.832;2023-06-19T02:42:23;51.18;47.56;57.10;;
69670;Laerm;66535;52.370;4.832;2023-06-19T02:42:54;48.77;43.12;58.32;;
69670;Laerm;66535;52.370;4.832;2023-06-19T02:43:25;48.26;43.07;61.52;;
69670;Laerm;66535;52.370;4.832;2023-06-19T02:43:57;49.68;42.80;62.74;;
69670;Laerm;66535;52.370;4.832;2023-06-19T02:44:29;48.93;44.81;58.18;;
69670;Laerm;66535;52.370;4.832;2023-06-19T02:45:00;47.41;42.79;59.73;;
69670;Laerm;66535;52.370;4.832;2023-06-19T02:45:34;47.63;43.65;52.63;;
69670;Laerm;66535;52.370;4.832;2023-06-19T02:46:05;45.66;41.67;50.55;;
69670;Laerm;66535;52.370;4.832;2023-06-19T02:46:37;46.84;43.20;50.68;;
69670;Laerm;66535;52.370;4.832;2023-06-19T02:47:08;48.52;45.24;51.81;;
69670;Laerm;66535;52.370;4.832;2023-06-19T02:47:40;47.53;44.40;55.13;;
69670;Laerm;66535;52.370;4.832;2023-06-19T02:48:12;49.54;45.69;53.36;;
69670;Laerm;66535;52.370;4.832;2023-06-19T02:48:43;50.35;47.10;53.25;;
69670;Laerm;66535;52.370;4.832;2023-06-19T02:49:14;47.46;44.58;50.70;;
69670;Laerm;66535;52.370;4.832;2023-06-19T02:49:47;46.15;42.70;50.76;;
69670;Laerm;66535;52.370;4.832;2023-06-19T02:50:18;48.91;43.96;52.24;;
69670;Laerm;66535;52.370;4.832;2023-06-19T02:50:49;47.07;44.12;52.33;;
69670;Laerm;66535;52.370;4.832;2023-06-19T02:51:21;46.03;42.49;54.95;;
69670;Laerm;66535;52.370;4.832;2023-06-19T02:51:53;50.07;45.16;54.48;;
69670;Laerm;66535;52.370;4.832;2023-06-19T02:52:24;47.59;44.57;53.06;;
69670;Laerm;66535;52.370;4.832;2023-06-19T02:52:56;49.61;45.16;55.78;;
69670;Laerm;66535;52.370;4.832;2023-06-19T02:53:27;48.44;44.51;56.60;;
69670;Laerm;66535;52.370;4.832;2023-06-19T02:54:00;46.99;44.45;54.59;;
69670;Laerm;66535;52.370;4.832;2023-06-19T02:54:32;49.31;44.52;54.16;;
69670;Laerm;66535;52.370;4.832;2023-06-19T02:55:04;50.01;47.39;54.65;;
69670;Laerm;66535;52.370;4.832;2023-06-19T02:55:38;49.10;46.41;54.27;;
69670;Laerm;66535;52.370;4.832;2023-06-19T02:56:11;49.22;45.66;57.26;;
69670;Laerm;66535;52.370;4.832;2023-06-19T02:56:42;49.24;46.10;55.62;;
69670;Laerm;66535;52.370;4.832;2023-06-19T02:57:13;50.64;47.14;56.22;;
69670;Laerm;66535;52.370;4.832;2023-06-19T02:57:44;50.14;44.63;58.60;;
69670;Laerm;66535;52.370;4.832;2023-06-19T02:58:18;48.53;43.30;60.89;;
69670;Laerm;66535;52.370;4.832;2023-06-19T02:58:49;49.57;43.79;66.65;;
69670;Laerm;66535;52.370;4.832;2023-06-19T02:59:20;52.37;46.06;66.64;;
69670;Laerm;66535;52.370;4.832;2023-06-19T02:59:53;52.29;45.66;67.70;;
69670;Laerm;66535;52.370;4.832;2023-06-19T03:00:24;51.97;45.10;67.70;;
69670;Laerm;66535;52.370;4.832;2023-06-19T03:00:55;49.08;43.53;63.91;;